createdAt,value
2019-04-27T00:01:17.762Z,9.40
2019-04-27T00:04:04.970Z,9.40
2019-04-27T00:06:46.420Z,9.40
2019-04-27T00:09:33.975Z,9.40
2019-04-27T00:12:05.697Z,9.40
2019-04-27T00:14:35.043Z,9.40
2019-04-27T00:17:14.506Z,9.40
2019-04-27T00:19:45.025Z,9.50
2019-04-27T00:22:15.536Z,9.50
2019-04-27T00:24:44.461Z,9.50
2019-04-27T00:27:13.473Z,9.50
2019-04-27T00:29:43.173Z,9.50
2019-04-27T00:32:13.208Z,9.50
2019-04-27T00:34:43.115Z,9.50
2019-04-27T00:37:13.881Z,9.50
2019-04-27T00:39:53.332Z,9.50
2019-04-27T00:42:23.189Z,9.50
2019-04-27T00:44:52.165Z,9.50
2019-04-27T00:47:21.107Z,9.50
2019-04-27T00:49:50.037Z,9.40
2019-04-27T00:52:18.987Z,9.40
2019-04-27T00:54:47.885Z,9.40
2019-04-27T00:57:27.391Z,9.40
2019-04-27T00:59:57.884Z,9.40
2019-04-27T01:02:35.509Z,9.30
2019-04-27T01:05:07.175Z,9.40
2019-04-27T01:07:36.146Z,9.30
2019-04-27T01:10:07.152Z,9.80
2019-04-27T01:12:36.121Z,9.30
2019-04-27T01:15:06.427Z,9.40
2019-04-27T01:17:35.392Z,9.40
2019-04-27T01:20:05.095Z,9.40
2019-04-27T01:22:34.059Z,9.40
2019-04-27T01:25:03.262Z,9.40
2019-04-27T01:27:36.584Z,9.40
2019-04-27T01:30:09.442Z,9.30
2019-04-27T01:32:39.224Z,9.30
2019-04-27T01:35:08.682Z,9.30
2019-04-27T01:37:38.693Z,9.40
2019-04-27T01:40:09.640Z,9.30
2019-04-27T01:42:39.503Z,9.40
2019-04-27T01:45:08.658Z,9.40
2019-04-27T01:47:39.082Z,9.40
2019-04-27T01:50:08.797Z,9.40
2019-04-27T01:52:38.537Z,9.40
2019-04-27T01:55:08.731Z,9.30
2019-04-27T01:57:38.651Z,9.30
2019-04-27T02:00:24.310Z,9.30
2019-04-27T02:02:54.823Z,9.30
2019-04-27T02:05:31.061Z,9.30
2019-04-27T02:08:00.074Z,9.30
2019-04-27T02:10:29.362Z,9.30
2019-04-27T02:12:58.720Z,9.30
2019-04-27T02:15:29.277Z,9.30
2019-04-27T02:17:59.639Z,9.30
2019-04-27T02:20:30.091Z,9.30
2019-04-27T02:22:59.262Z,9.30
2019-04-27T02:25:29.530Z,9.30
2019-04-27T02:28:03.014Z,9.30
2019-04-27T02:30:45.284Z,9.30
2019-04-27T02:33:16.307Z,9.30
2019-04-27T02:35:45.224Z,9.30
2019-04-27T02:38:14.164Z,9.30
2019-04-27T02:40:55.052Z,9.20
2019-04-27T02:43:29.644Z,9.20
2019-04-27T02:46:00.419Z,9.20
2019-04-27T02:48:29.883Z,9.20
2019-04-27T02:51:10.026Z,9.10
2019-04-27T02:53:52.664Z,9.20
2019-04-27T02:56:21.557Z,9.20
2019-04-27T02:58:50.497Z,9.20
2019-04-27T03:01:20.251Z,9.20
2019-04-27T03:03:50.266Z,9.20
2019-04-27T03:06:19.973Z,9.10
2019-04-27T03:08:52.900Z,9.20
2019-04-27T03:11:20.521Z,9.20
2019-04-27T03:14:15.097Z,9.20
2019-04-27T03:16:55.121Z,9.20
2019-04-27T03:19:42.141Z,9.20
2019-04-27T03:22:24.710Z,9.20
2019-04-27T03:25:04.024Z,9.20
2019-04-27T03:27:40.644Z,9.20
2019-04-27T03:30:12.795Z,9.20
2019-04-27T03:32:43.383Z,9.20
2019-04-27T03:35:13.517Z,9.20
2019-04-27T03:37:42.896Z,9.10
2019-04-27T03:40:12.567Z,9.20
2019-04-27T03:42:43.051Z,9.10
2019-04-27T03:45:12.527Z,9.20
2019-04-27T03:47:41.517Z,9.20
2019-04-27T03:50:12.633Z,9.10
2019-04-27T03:52:43.122Z,9.10
2019-04-27T03:55:13.659Z,9.10
2019-04-27T03:58:00.082Z,9.10
2019-04-27T04:00:31.404Z,9.10
2019-04-27T04:03:00.655Z,9.10
2019-04-27T04:05:30.175Z,9.10
2019-04-27T04:08:00.403Z,9.10
2019-04-27T04:10:31.277Z,9.10
2019-04-27T04:13:04.494Z,9.10
2019-04-27T04:15:35.003Z,9.10
2019-04-27T04:18:03.900Z,9.20
2019-04-27T04:20:32.807Z,9.10
2019-04-27T04:23:03.422Z,9.20
2019-04-27T04:25:33.121Z,9.20
2019-04-27T04:28:02.502Z,9.20
2019-04-27T04:30:31.416Z,9.20
2019-04-27T04:33:00.358Z,9.20
2019-04-27T04:35:32.463Z,9.20
2019-04-27T04:38:00.328Z,9.20
2019-04-27T04:40:33.892Z,9.30
2019-04-27T04:43:07.328Z,9.30
2019-04-27T04:45:56.314Z,9.30
2019-04-27T04:48:25.223Z,9.30
2019-04-27T04:50:54.120Z,9.40
2019-04-27T04:53:23.098Z,9.40
2019-04-27T04:55:52.010Z,9.40
2019-04-27T04:58:21.242Z,9.40
2019-04-27T05:00:50.441Z,9.40
2019-04-27T05:03:21.842Z,9.50
2019-04-27T05:05:50.238Z,9.60
2019-04-27T05:08:19.748Z,9.60
2019-04-27T05:10:49.674Z,9.70
2019-04-27T05:13:19.342Z,9.70
2019-04-27T05:15:48.825Z,9.80
2019-04-27T05:18:19.211Z,9.80
2019-04-27T05:20:52.544Z,9.80
2019-04-27T05:23:21.491Z,9.80
2019-04-27T05:25:50.450Z,9.90
2019-04-27T05:28:19.423Z,9.90
2019-04-27T05:30:48.944Z,10.00
2019-04-27T05:33:18.774Z,10.00
2019-04-27T05:35:49.111Z,10.10
2019-04-27T05:38:19.262Z,10.10
2019-04-27T05:40:49.987Z,10.20
2019-04-27T05:43:20.780Z,10.30
2019-04-27T05:46:06.386Z,10.30
2019-04-27T05:48:38.809Z,10.30
2019-04-27T05:51:09.069Z,10.30
2019-04-27T05:53:39.542Z,10.40
2019-04-27T05:56:09.399Z,10.50
2019-04-27T05:58:39.199Z,10.60
2019-04-27T06:01:10.979Z,10.60
2019-04-27T06:03:39.728Z,10.80
2019-04-27T06:06:09.695Z,10.90
2019-04-27T06:08:39.273Z,11.00
2019-04-27T06:11:09.413Z,11.10
2019-04-27T06:13:39.183Z,11.10
2019-04-27T06:16:09.447Z,11.10
2019-04-27T06:18:39.170Z,11.10
2019-04-27T06:21:09.742Z,11.20
2019-04-27T06:23:39.140Z,11.30
2019-04-27T06:26:09.207Z,11.40
2019-04-27T06:28:39.787Z,11.30
2019-04-27T06:31:08.967Z,11.40
2019-04-27T06:33:39.176Z,11.40
2019-04-27T06:36:09.999Z,11.50
2019-04-27T06:38:39.376Z,11.50
2019-04-27T06:41:10.041Z,11.60
2019-04-27T06:43:40.621Z,11.60
2019-04-27T06:46:09.820Z,11.80
2019-04-27T06:48:39.484Z,11.80
2019-04-27T06:51:09.695Z,12.00
2019-04-27T06:53:39.457Z,12.20
2019-04-27T06:56:09.032Z,12.20
2019-04-27T06:58:40.470Z,12.30
2019-04-27T07:01:10.771Z,12.20
2019-04-27T07:03:39.604Z,12.20
2019-04-27T07:06:08.920Z,12.20
2019-04-27T07:08:40.363Z,12.20
2019-04-27T07:11:11.484Z,12.30
2019-04-27T07:13:41.707Z,12.50
2019-04-27T07:16:10.657Z,12.60
2019-04-27T07:18:40.593Z,12.80
2019-04-27T07:21:18.785Z,12.90
2019-04-27T07:23:59.311Z,13.10
2019-04-27T07:26:30.307Z,13.20
2019-04-27T07:28:59.843Z,13.40
2019-04-27T07:31:31.766Z,13.60
2019-04-27T07:34:00.106Z,13.70
2019-04-27T07:36:29.137Z,13.90
2019-04-27T07:38:59.629Z,14.10
2019-04-27T07:41:29.164Z,14.20
2019-04-27T07:44:05.662Z,14.40
2019-04-27T07:46:34.579Z,14.50
2019-04-27T07:49:03.562Z,14.70
2019-04-27T07:51:34.368Z,14.80
2019-04-27T07:54:03.134Z,14.80
2019-04-27T07:56:32.077Z,15.00
2019-04-27T07:59:01.041Z,15.20
2019-04-27T08:01:30.042Z,15.20
2019-04-27T08:03:59.159Z,15.30
2019-04-27T08:06:28.934Z,15.30
2019-04-27T08:08:59.327Z,15.50
2019-04-27T08:11:29.265Z,15.60
2019-04-27T08:13:58.891Z,15.50
2019-04-27T08:16:29.035Z,15.50
2019-04-27T08:19:00.044Z,15.60
2019-04-27T08:21:29.045Z,15.40
2019-04-27T08:23:58.667Z,15.30
2019-04-27T08:26:29.448Z,15.30
2019-04-27T08:29:03.023Z,15.50
2019-04-27T08:31:33.512Z,15.50
2019-04-27T08:34:02.473Z,15.50
2019-04-27T08:36:31.394Z,15.60
2019-04-27T08:39:00.382Z,15.60
2019-04-27T08:41:31.886Z,15.50
2019-04-27T08:44:01.021Z,15.60
2019-04-27T08:46:30.044Z,15.50
2019-04-27T08:48:59.063Z,15.60
2019-04-27T08:51:29.117Z,15.60
2019-04-27T08:53:59.133Z,15.70
2019-04-27T08:56:28.177Z,15.70
2019-04-27T08:58:57.133Z,15.90
2019-04-27T09:01:26.051Z,16.20
2019-04-27T09:03:55.010Z,16.30
2019-04-27T09:06:23.920Z,16.40
2019-04-27T09:08:54.469Z,16.40
2019-04-27T09:11:41.538Z,16.40
2019-04-27T09:14:12.062Z,16.30
2019-04-27T09:16:59.581Z,16.40
2019-04-27T09:19:23.561Z,16.10
2019-04-27T09:22:12.251Z,16.30
2019-04-27T09:24:32.520Z,16.40
2019-04-27T09:27:01.434Z,16.60
2019-04-27T09:29:30.386Z,16.70
2019-04-27T09:31:59.635Z,16.50
2019-04-27T09:34:29.911Z,16.60
2019-04-27T09:36:58.885Z,16.70
2019-04-27T09:39:27.853Z,17.10
2019-04-27T09:41:58.163Z,17.70
2019-04-27T09:44:27.281Z,17.90
2019-04-27T09:46:56.248Z,18.40
2019-04-27T09:49:26.327Z,18.20
2019-04-27T09:51:55.810Z,18.40
2019-04-27T09:54:24.822Z,18.30
2019-04-27T09:56:56.104Z,18.30
2019-04-27T09:59:26.603Z,17.60
2019-04-27T10:01:57.700Z,17.50
2019-04-27T10:04:28.968Z,17.50
2019-04-27T10:07:06.206Z,17.50
2019-04-27T10:09:36.830Z,17.70
2019-04-27T10:12:07.572Z,17.70
2019-04-27T10:14:41.003Z,17.20
2019-04-27T10:17:17.663Z,17.50
2019-04-27T10:19:47.494Z,17.50
2019-04-27T10:22:16.506Z,17.50
2019-04-27T10:24:45.407Z,17.50
2019-04-27T10:27:16.095Z,17.20
2019-04-27T10:29:46.736Z,16.90
2019-04-27T10:32:16.235Z,17.40
2019-04-27T10:34:45.278Z,18.20
2019-04-27T10:37:15.936Z,18.60
2019-04-27T10:39:45.972Z,18.80
2019-04-27T10:42:15.230Z,19.20
2019-04-27T10:44:45.985Z,19.10
2019-04-27T10:47:15.793Z,19.30
2019-04-27T10:49:46.616Z,19.90
2019-04-27T10:52:15.751Z,19.60
2019-04-27T10:54:44.657Z,19.10
2019-04-27T10:57:13.607Z,18.80
2019-04-27T10:59:42.539Z,19.00
2019-04-27T11:02:11.478Z,19.10
2019-04-27T11:04:46.229Z,18.80
2019-04-27T11:07:16.898Z,18.30
2019-04-27T11:09:45.839Z,18.30
2019-04-27T11:12:15.850Z,18.30
2019-04-27T11:14:44.909Z,18.10
2019-04-27T11:17:13.990Z,18.30
2019-04-27T11:19:42.916Z,18.30
2019-04-27T11:22:11.928Z,18.50
2019-04-27T11:24:40.875Z,18.90
2019-04-27T11:27:09.774Z,19.40
2019-04-27T11:29:38.733Z,19.60
2019-04-27T11:32:07.847Z,19.70
2019-04-27T11:34:55.867Z,19.80
2019-04-27T11:37:26.471Z,19.80
2019-04-27T11:39:56.030Z,20.10
2019-04-27T11:42:25.183Z,19.60
2019-04-27T11:44:57.940Z,19.10
2019-04-27T11:47:24.958Z,18.80
2019-04-27T11:49:54.440Z,18.90
2019-04-27T11:52:24.011Z,18.50
2019-04-27T11:54:53.026Z,18.10
2019-04-27T11:57:22.335Z,17.60
2019-04-27T11:59:52.641Z,17.40
2019-04-27T12:02:21.718Z,17.80
2019-04-27T12:04:51.337Z,18.30
2019-04-27T12:07:20.394Z,19.10
2019-04-27T12:09:49.444Z,18.80
2019-04-27T12:12:21.706Z,18.80
2019-04-27T12:14:49.149Z,18.90
2019-04-27T12:17:19.224Z,18.80
2019-04-27T12:19:48.435Z,18.70
2019-04-27T12:22:17.360Z,18.50
2019-04-27T12:24:46.300Z,18.40
2019-04-27T12:27:16.780Z,18.50
2019-04-27T12:30:06.158Z,18.80
2019-04-27T12:32:35.983Z,18.80
2019-04-27T12:35:06.744Z,19.20
2019-04-27T12:37:35.826Z,18.90
2019-04-27T12:40:07.205Z,18.90
2019-04-27T12:42:36.429Z,18.90
2019-04-27T12:45:07.275Z,19.40
2019-04-27T12:47:36.548Z,19.20
2019-04-27T12:50:10.572Z,19.20
2019-04-27T12:52:40.480Z,19.00
2019-04-27T12:55:13.460Z,18.90
2019-04-27T12:57:43.950Z,19.00
2019-04-27T13:00:17.955Z,19.20
2019-04-27T13:02:47.282Z,18.90
2019-04-27T13:05:16.224Z,18.60
2019-04-27T13:07:45.127Z,18.50
2019-04-27T13:10:15.936Z,18.70
2019-04-27T13:12:46.084Z,19.00
2019-04-27T13:15:15.569Z,19.10
2019-04-27T13:17:44.481Z,19.00
2019-04-27T13:20:13.824Z,18.90
2019-04-27T13:22:42.751Z,19.50
2019-04-27T13:25:11.736Z,20.00
2019-04-27T13:27:40.688Z,20.10
2019-04-27T13:30:10.807Z,20.50
2019-04-27T13:32:39.749Z,20.20
2019-04-27T13:35:11.269Z,20.00
2019-04-27T13:37:41.346Z,19.70
2019-04-27T13:40:11.752Z,19.60
2019-04-27T13:42:42.327Z,19.40
2019-04-27T13:45:12.810Z,19.30
2019-04-27T13:47:43.321Z,18.70
2019-04-27T13:50:16.753Z,18.80
2019-04-27T13:52:46.696Z,18.50
2019-04-27T13:55:16.015Z,18.10
2019-04-27T13:57:50.365Z,17.90
2019-04-27T14:00:15.993Z,17.60
2019-04-27T14:02:45.334Z,17.10
2019-04-27T14:05:14.222Z,16.80
2019-04-27T14:07:43.161Z,16.60
2019-04-27T14:10:12.180Z,16.30
2019-04-27T14:12:41.144Z,16.10
2019-04-27T14:15:10.045Z,16.00
2019-04-27T14:17:39.237Z,15.80
2019-04-27T14:20:09.711Z,15.70
2019-04-27T14:22:38.835Z,15.60
2019-04-27T14:25:08.604Z,15.60
2019-04-27T14:27:40.625Z,15.60
2019-04-27T14:30:11.968Z,15.60
2019-04-27T14:32:42.425Z,15.90
2019-04-27T14:35:11.612Z,16.20
2019-04-27T14:37:40.599Z,16.40
2019-04-27T14:40:09.995Z,16.40
2019-04-27T14:42:39.326Z,16.40
2019-04-27T14:45:09.926Z,16.20
2019-04-27T14:47:39.939Z,16.00
2019-04-27T14:50:09.174Z,16.00
2019-04-27T14:52:39.075Z,15.90
2019-04-27T14:55:08.766Z,16.10
2019-04-27T14:57:39.390Z,16.40
2019-04-27T15:00:10.313Z,16.70
2019-04-27T15:02:39.373Z,17.00
2019-04-27T15:05:08.591Z,17.30
2019-04-27T15:07:37.531Z,17.40
2019-04-27T15:10:07.069Z,17.40
2019-04-27T15:12:35.969Z,17.10
2019-04-27T15:15:07.921Z,16.90
2019-04-27T15:17:37.120Z,16.60
2019-04-27T15:20:27.109Z,16.20
2019-04-27T15:22:57.003Z,16.20
2019-04-27T15:25:25.524Z,16.10
2019-04-27T15:27:58.551Z,16.10
2019-04-27T15:30:29.063Z,15.90
2019-04-27T15:33:00.433Z,15.70
2019-04-27T15:35:35.444Z,16.00
2019-04-27T15:38:22.262Z,16.30
2019-04-27T15:41:08.850Z,16.40
2019-04-27T15:43:39.488Z,16.20
2019-04-27T15:46:08.443Z,15.90
2019-04-27T15:48:38.488Z,15.70
2019-04-27T15:51:14.754Z,15.30
2019-04-27T15:53:50.903Z,15.20
2019-04-27T15:56:21.697Z,14.80
2019-04-27T15:58:50.085Z,14.60
2019-04-27T16:01:19.037Z,14.30
2019-04-27T16:03:48.272Z,14.20
2019-04-27T16:06:19.080Z,14.10
2019-04-27T16:08:49.188Z,14.00
2019-04-27T16:11:19.819Z,13.90
2019-04-27T16:13:48.953Z,13.60
2019-04-27T16:16:19.602Z,13.40
2019-04-27T16:18:49.103Z,13.20
2019-04-27T16:21:20.067Z,13.10
2019-04-27T16:23:48.683Z,12.90
2019-04-27T16:26:18.349Z,12.80
2019-04-27T16:28:53.123Z,12.50
2019-04-27T16:31:18.693Z,12.30
2019-04-27T16:33:49.608Z,12.30
2019-04-27T16:36:19.724Z,12.20
2019-04-27T16:38:56.206Z,12.10
2019-04-27T16:41:25.137Z,12.00
2019-04-27T16:43:54.031Z,11.80
2019-04-27T16:46:22.999Z,11.70
2019-04-27T16:48:53.445Z,11.60
2019-04-27T16:51:22.393Z,11.40
2019-04-27T16:53:54.506Z,11.40
2019-04-27T16:56:24.640Z,11.40
2019-04-27T16:58:56.703Z,11.40
2019-04-27T17:01:28.488Z,11.40
2019-04-27T17:03:58.879Z,11.40
2019-04-27T17:06:29.563Z,11.40
2019-04-27T17:09:05.422Z,11.30
2019-04-27T17:11:29.800Z,11.30
2019-04-27T17:14:00.669Z,11.30
2019-04-27T17:16:49.390Z,11.20
2019-04-27T17:19:19.874Z,11.20
2019-04-27T17:21:48.765Z,11.30
2019-04-27T17:24:19.283Z,11.30
2019-04-27T17:26:48.189Z,11.30
2019-04-27T17:29:20.487Z,11.20
2019-04-27T17:31:55.068Z,11.20
2019-04-27T17:34:25.113Z,11.10
2019-04-27T17:36:54.822Z,11.10
2019-04-27T17:39:23.395Z,10.90
2019-04-27T17:41:53.497Z,10.90
2019-04-27T17:44:23.238Z,10.90
2019-04-27T17:46:52.347Z,10.90
2019-04-27T17:49:23.846Z,10.80
2019-04-27T17:51:52.745Z,10.80
2019-04-27T17:54:21.692Z,10.80
2019-04-27T17:56:52.462Z,10.90
2019-04-27T17:59:21.265Z,10.90
2019-04-27T18:01:53.912Z,11.00
2019-04-27T18:04:20.810Z,11.00
2019-04-27T18:06:49.713Z,11.00
2019-04-27T18:09:19.424Z,11.00
2019-04-27T18:11:50.318Z,10.90
2019-04-27T18:14:19.382Z,11.00
2019-04-27T18:16:48.476Z,11.00
2019-04-27T18:19:19.377Z,11.00
2019-04-27T18:22:00.499Z,11.00
2019-04-27T18:24:29.593Z,11.00
2019-04-27T18:27:18.235Z,11.00
2019-04-27T18:29:48.566Z,11.00
2019-04-27T18:32:17.638Z,11.00
2019-04-27T18:34:49.456Z,11.00
2019-04-27T18:37:24.480Z,11.00
2019-04-27T18:39:50.994Z,11.00
2019-04-27T18:42:29.031Z,10.90
2019-04-27T18:45:05.986Z,10.90
2019-04-27T18:47:31.288Z,10.90
2019-04-27T18:50:13.120Z,10.80
2019-04-27T18:52:35.679Z,10.80
2019-04-27T18:55:16.520Z,10.80
2019-04-27T18:57:45.810Z,10.80
2019-04-27T19:00:16.026Z,10.70
2019-04-27T19:02:45.072Z,10.60
2019-04-27T19:05:14.137Z,10.50
2019-04-27T19:07:43.392Z,10.50
2019-04-27T19:10:13.566Z,10.50
2019-04-27T19:12:52.833Z,10.50
2019-04-27T19:15:22.673Z,10.50
2019-04-27T19:17:51.921Z,10.50
2019-04-27T19:20:20.890Z,10.50
2019-04-27T19:22:49.814Z,10.30
2019-04-27T19:25:20.794Z,10.40
2019-04-27T19:28:11.657Z,10.40
2019-04-27T19:30:49.007Z,10.40
2019-04-27T19:33:18.499Z,10.30
2019-04-27T19:35:48.146Z,10.20
2019-04-27T19:38:18.593Z,10.20
2019-04-27T19:40:48.502Z,10.20
2019-04-27T19:43:19.364Z,11.10
2019-04-27T19:45:49.299Z,10.20
2019-04-27T19:48:19.182Z,10.10
2019-04-27T19:50:50.480Z,10.10
2019-04-27T19:53:22.675Z,10.20
2019-04-27T19:56:04.072Z,10.20
2019-04-27T19:58:38.074Z,10.20
2019-04-27T20:01:25.628Z,10.20
2019-04-27T20:04:01.893Z,10.20
2019-04-27T20:06:31.639Z,10.20
2019-04-27T20:09:08.166Z,10.20
2019-04-27T20:11:39.528Z,10.10
2019-04-27T20:14:11.008Z,10.00
2019-04-27T20:16:41.653Z,10.00
2019-04-27T20:19:13.599Z,10.00
2019-04-27T20:21:44.748Z,9.90
2019-04-27T20:24:14.113Z,9.90
2019-04-27T20:26:44.839Z,9.90
2019-04-27T20:29:14.614Z,9.90
2019-04-27T20:31:44.549Z,9.90
2019-04-27T20:34:14.033Z,9.90
2019-04-27T20:36:45.044Z,9.80
2019-04-27T20:39:15.540Z,9.80
2019-04-27T20:41:45.142Z,9.80
2019-04-27T20:44:14.505Z,9.90
2019-04-27T20:46:43.865Z,9.80
2019-04-27T20:49:17.219Z,9.90
2019-04-27T20:51:53.064Z,9.90
2019-04-27T20:54:27.752Z,9.90
2019-04-27T20:56:57.449Z,9.90
2019-04-27T20:59:27.393Z,9.90
2019-04-27T21:01:58.177Z,9.90
2019-04-27T21:04:30.918Z,9.40
2019-04-27T21:07:01.860Z,9.90
2019-04-27T21:09:32.586Z,9.80
2019-04-27T21:12:03.531Z,9.80
2019-04-27T21:14:32.531Z,9.80
2019-04-27T21:17:01.780Z,9.80
2019-04-27T21:19:31.287Z,9.80
2019-04-27T21:22:01.339Z,9.70
2019-04-27T21:24:31.177Z,9.80
2019-04-27T21:27:01.145Z,9.80
2019-04-27T21:29:31.130Z,9.80
2019-04-27T21:32:01.017Z,9.80
2019-04-27T21:34:31.053Z,9.80
2019-04-27T21:37:19.613Z,9.80
2019-04-27T21:39:48.720Z,9.70
2019-04-27T21:42:17.755Z,9.70
2019-04-27T21:44:46.773Z,9.80
2019-04-27T21:47:15.710Z,9.70
2019-04-27T21:49:44.808Z,9.70
2019-04-27T21:52:15.397Z,9.70
2019-04-27T21:54:46.097Z,9.70
2019-04-27T21:57:16.581Z,9.70
2019-04-27T21:59:46.189Z,9.70
2019-04-27T22:02:15.601Z,9.70
2019-04-27T22:04:44.719Z,9.70
2019-04-27T22:07:13.721Z,9.70
2019-04-27T22:09:43.314Z,9.70
2019-04-27T22:12:12.443Z,9.70
2019-04-27T22:14:41.397Z,9.70
2019-04-27T22:17:11.007Z,9.60
2019-04-27T22:19:41.295Z,9.60
2019-04-27T22:22:12.611Z,9.60
2019-04-27T22:24:43.102Z,9.60
2019-04-27T22:27:12.189Z,9.50
2019-04-27T22:29:41.226Z,9.50
2019-04-27T22:32:10.211Z,9.60
2019-04-27T22:34:39.174Z,9.60
2019-04-27T22:37:08.163Z,9.60
2019-04-27T22:39:38.742Z,9.60
2019-04-27T22:42:25.391Z,9.60
2019-04-27T22:44:55.916Z,9.60
2019-04-27T22:47:24.888Z,9.60
2019-04-27T22:49:55.036Z,9.60
2019-04-27T22:52:24.046Z,9.60
2019-04-27T22:54:53.008Z,9.60
2019-04-27T22:57:23.507Z,9.60
2019-04-27T22:59:54.769Z,9.60
2019-04-27T23:02:29.389Z,9.60
2019-04-27T23:05:01.946Z,9.60
2019-04-27T23:07:31.631Z,9.60
2019-04-27T23:10:01.894Z,9.60
2019-04-27T23:12:31.717Z,9.60
2019-04-27T23:15:00.832Z,9.60
2019-04-27T23:17:47.387Z,9.60
2019-04-27T23:20:16.365Z,9.60
2019-04-27T23:22:45.362Z,9.60
2019-04-27T23:25:14.534Z,9.50
2019-04-27T23:27:45.091Z,9.50
2019-04-27T23:30:14.453Z,9.50
2019-04-27T23:32:48.027Z,9.50
2019-04-27T23:35:16.975Z,9.50
2019-04-27T23:37:45.919Z,9.50
2019-04-27T23:40:15.343Z,9.50
2019-04-27T23:42:44.722Z,9.50
2019-04-27T23:45:14.045Z,9.50
2019-04-27T23:47:42.979Z,9.40
2019-04-27T23:50:12.391Z,9.40
2019-04-27T23:52:59.186Z,9.40
2019-04-27T23:55:30.955Z,9.40
2019-04-27T23:58:00.094Z,9.40
